Pagrindinis puslapis
METAR-TAF:

METAR-TAF

Oro uostai :

Strasbūras, Prancūzija

platuma: 48-33N, ilguma: 007-38E, Aukštis: 153 m

Dabartinis oras

Ataskaita buvo paskelbta 18 minutes, ne 09:30 UTC
Vėjas 7 kt iš Šiaurės/Šiaurės Rytų, svyruoja nuo Šiaurės/Šiaurės Vakarų ir Rytų
Temperatūra 16°C
Drėgmė 45%
Slėgis 1027 hPa
Matomumas 10 km arba daugiau
nėra debesų žemiau 1500 m ir nėra kamuolinių lietaus debesų

METAR: LFST 200930Z AUTO 02007KT 340V080 CAVOK 16/04 Q1027 NOSIG

Laikas: 11:48 (09:48 UTC)

Prognozė

Ataskaita buvo paskelbta 4 valandos ir 48 minutes, ne 05:00 UTC
Prognozė galioja nuo 20 metu 06 UTC su 21 metu 06 UTC
Vėjas 5 kt iš Šiaurės
Matomumas 10 km arba daugiau
nėra debesų žemiau 1500 m ir nėra kamuolinių lietaus debesų
Laikinai
nuo 20 metu 12 UTC su 20 metu 18 UTC
Vėjas 10 kt iš Šiaurės Rytų

TAF: LFST 200500Z 2006/2106 35005KT CAVOK TEMPO 2012/2018 05010KT

Orai ataskaitas ir orų prognozės (METAR, TAF).

turimą stotys yra geltonos ir raudonos taškus žemėlapyje.

Perkelti pele per norėdami pamatyti stoties vardą.

Tada spustelėkite, norėdami matyti oro stebėjimo ir prognozės.

Norėdami pakeisti žemėlapį: spustelėkite ant žalios mygtukų su juodo kryžiaus žemyn,; žalią mygtuką su brūkšneliu, jei norite nutolinti; arba žalių rodyklių gretimoms žemėlapius.


METAR-TAF: